Aviation Digital Data Service (ADDS)

Output produced by METARs form (1632 UTC 04 September 2015)
found at http://aviationweather.gov/adds/metars/
 
KHKY 041123Z 0412/0512 32006KT P6SM FEW250 
     FM041500 04005KT P6SM SCT060 
     FM042200 03004KT P6SM BKN060 
     PROB30 0422/0504 4SM TSRA BKN040CB 
     FM050400 05004KT P6SM BKN070 
     PROB30 0504/0510 4SM TSRA BKN040CB